Check out our new PWSWeather beta!
PWSweather.com
Personal Weather Stations
Station Observations
21805
Centre Of Ekeren, AntwerpBE

Centre Of EkerenAntwerpBE

Lat: 51.28072820000001, Lon: 4.420431000000008

Elevation: 12

Station Type: Davis VP Pro II

http://www.akker.be/template/

Latest ConditionsUpdated 11:30:00 AM GMT+01:01 Wednesday, Feb 26, 2020
Currently Today's Max Today's Min Today's Average
Temperature 41.2°F5.1°C 41.5°F5.3°C 34.6°F1.4°C 38.0°F3.3°C
Dew Point 35.8°F2.1°C 36.5°F2.5°C 31.2°F-0.4°C 34.3°F1.3°C
Winds 1.1 mph NW1.8 kmh NW 5.8 mph -9.3 kmh - - 0.7 mph 1.1 kmh
Wind Gusts 4.6 mph7.4 kmh 18.4 mph29.6 kmh - -
Humidity 81% 91% 81% 86%
Pressure 29.56 in1001.0 mb 29.56 in1001.0 mb 29.35 in993.9 mb -
Precipitation - 0.32 in8.1 mm - -
Hour Temp Dew Point Humidity Winds Wind Gusts Pressure Precip Precip Rate Daily Precip Total
11:30 AM 41.2°F5.1°C 35.8°F2.1°C 81% 1.1 mph NW1.8 kmh NW 4.6 mph7.4 kmh 29.56 in1001.0 mb - 0.32 in8.1 mm 0.32 in8.1 mm
11:24 AM 41.2°F5.1°C 35.8°F2.1°C 81% 1.1 mph WNW1.8 kmh WNW 5.8 mph9.3 kmh 29.56 in1001.0 mb - 0.32 in8.1 mm 0.32 in8.1 mm
11:18 AM 41.3°F5.2°C 36.0°F2.2°C 81% 1.1 mph NW1.8 kmh NW 1.1 mph1.8 kmh 29.56 in1001.0 mb - 0.32 in8.1 mm 0.32 in8.1 mm
11:13 AM 41.4°F5.2°C 36.3°F2.4°C 82% Calm Calm 2.3 mph3.7 kmh 29.55 in1000.7 mb - 0.32 in8.1 mm 0.32 in8.1 mm
11:07 AM 41.3°F5.2°C 36.3°F2.4°C 82% Calm Calm -- 29.55 in1000.7 mb - 0.32 in8.1 mm 0.32 in8.1 mm
11:01 AM 41.5°F5.3°C 36.4°F2.4°C 82% Calm Calm 8.0 mph12.9 kmh 29.55 in1000.7 mb - 0.32 in8.1 mm 0.32 in8.1 mm
10:56 AM 41.3°F5.2°C 36.5°F2.5°C 83% Calm Calm -- 29.55 in1000.7 mb - 0.32 in8.1 mm 0.32 in8.1 mm
10:50 AM 40.9°F4.9°C 36.4°F2.4°C 84% Calm Calm -- 29.54 in1000.3 mb - 0.32 in8.1 mm 0.32 in8.1 mm
10:45 AM 40.6°F4.8°C 36.4°F2.4°C 85% Calm Calm -- 29.54 in1000.3 mb - 0.32 in8.1 mm 0.32 in8.1 mm
10:39 AM 40.2°F4.6°C 36.0°F2.2°C 85% Calm Calm -- 29.54 in1000.3 mb - 0.32 in8.1 mm 0.32 in8.1 mm
10:33 AM 39.8°F4.3°C 36.0°F2.2°C 86% Calm Calm 1.1 mph1.8 kmh 29.54 in1000.3 mb - 0.32 in8.1 mm 0.32 in8.1 mm
10:28 AM 39.5°F4.2°C 35.7°F2.1°C 86% Calm Calm -- 29.53 in1000.0 mb - 0.32 in8.1 mm 0.32 in8.1 mm
10:22 AM 39.5°F4.2°C 35.9°F2.2°C 87% Calm Calm -- 29.53 in1000.0 mb - 0.32 in8.1 mm 0.32 in8.1 mm
10:16 AM 39.1°F3.9°C 35.6°F2.0°C 87% Calm Calm -- 29.53 in1000.0 mb - 0.32 in8.1 mm 0.32 in8.1 mm
10:11 AM 39.0°F3.9°C 35.5°F1.9°C 87% 1.1 mph W1.8 kmh W -- 29.53 in1000.0 mb - 0.32 in8.1 mm 0.32 in8.1 mm
10:05 AM 38.6°F3.7°C 34.8°F1.6°C 86% 2.3 mph NW3.7 kmh NW 6.9 mph11.1 kmh 29.53 in1000.0 mb - 0.32 in8.1 mm 0.32 in8.1 mm
10:00 AM 38.5°F3.6°C 34.7°F1.5°C 86% 1.1 mph NW1.8 kmh NW 3.4 mph5.5 kmh 29.52 in999.7 mb - 0.32 in8.1 mm 0.32 in8.1 mm
09:54 AM 38.3°F3.5°C 34.5°F1.4°C 86% 1.1 mph NW1.8 kmh NW 9.2 mph14.8 kmh 29.52 in999.7 mb - 0.31 in7.9 mm 0.32 in8.1 mm
09:48 AM 38.3°F3.5°C 34.5°F1.4°C 86% Calm Calm 9.2 mph14.8 kmh 29.52 in999.7 mb - 0.31 in7.9 mm 0.32 in8.1 mm
09:43 AM 38.6°F3.7°C 34.5°F1.4°C 85% Calm Calm 5.8 mph9.3 kmh 29.51 in999.3 mb - 0.31 in7.9 mm 0.32 in8.1 mm
09:37 AM 38.8°F3.8°C 34.7°F1.5°C 85% Calm Calm 3.4 mph5.5 kmh 29.51 in999.3 mb - 0.31 in7.9 mm 0.31 in7.9 mm
09:31 AM 39.0°F3.9°C 34.8°F1.6°C 85% Calm Calm 8.0 mph12.9 kmh 29.51 in999.3 mb - 0.30 in7.6 mm 0.30 in7.6 mm
09:26 AM 39.1°F3.9°C 34.9°F1.6°C 85% Calm Calm -- 29.50 in999.0 mb - 0.30 in7.6 mm 0.30 in7.6 mm
09:20 AM 39.0°F3.9°C 34.9°F1.6°C 85% Calm Calm 1.1 mph1.8 kmh 29.50 in999.0 mb - 0.30 in7.6 mm 0.30 in7.6 mm
09:15 AM 39.0°F3.9°C 34.6°F1.4°C 84% Calm Calm -- 29.50 in999.0 mb - 0.30 in7.6 mm 0.30 in7.6 mm
09:09 AM 39.2°F4.0°C 35.1°F1.7°C 85% 1.1 mph N1.8 kmh N 1.1 mph1.8 kmh 29.49 in998.6 mb - 0.30 in7.6 mm 0.30 in7.6 mm
09:03 AM 39.2°F4.0°C 35.1°F1.7°C 85% 1.1 mph NNE1.8 kmh NNE 4.6 mph7.4 kmh 29.49 in998.6 mb - 0.30 in7.6 mm 0.30 in7.6 mm
08:58 AM 39.2°F4.0°C 35.1°F1.7°C 85% 1.1 mph S1.8 kmh S 4.6 mph7.4 kmh 29.48 in998.3 mb - 0.30 in7.6 mm 0.30 in7.6 mm
08:52 AM 39.3°F4.1°C 35.5°F1.9°C 86% Calm Calm -- 29.48 in998.3 mb - 0.30 in7.6 mm 0.30 in7.6 mm
08:46 AM 39.2°F4.0°C 35.4°F1.9°C 86% Calm Calm -- 29.48 in998.3 mb - 0.30 in7.6 mm 0.30 in7.6 mm
08:41 AM 39.2°F4.0°C 35.4°F1.9°C 86% Calm Calm -- 29.48 in998.3 mb - 0.30 in7.6 mm 0.30 in7.6 mm
08:35 AM 39.2°F4.0°C 35.3°F1.8°C 86% Calm Calm 1.1 mph1.8 kmh 29.47 in998.0 mb - 0.30 in7.6 mm 0.30 in7.6 mm
08:30 AM 39.1°F3.9°C 35.3°F1.8°C 86% Calm Calm -- 29.47 in998.0 mb - 0.30 in7.6 mm 0.30 in7.6 mm
08:24 AM 39.0°F3.9°C 34.9°F1.6°C 85% Calm Calm -- 29.46 in997.6 mb - 0.30 in7.6 mm 0.30 in7.6 mm
08:18 AM 39.0°F3.9°C 34.9°F1.6°C 85% Calm Calm -- 29.46 in997.6 mb - 0.30 in7.6 mm 0.30 in7.6 mm
08:13 AM 39.1°F3.9°C 34.9°F1.6°C 85% Calm Calm -- 29.46 in997.6 mb - 0.30 in7.6 mm 0.30 in7.6 mm
08:07 AM 39.1°F3.9°C 35.0°F1.7°C 85% Calm Calm -- 29.45 in997.3 mb - 0.30 in7.6 mm 0.30 in7.6 mm
08:01 AM 39.0°F3.9°C 34.9°F1.6°C 85% Calm Calm 4.6 mph7.4 kmh 29.45 in997.3 mb - 0.29 in7.4 mm 0.29 in7.4 mm
07:56 AM 39.0°F3.9°C 34.9°F1.6°C 85% 3.4 mph W5.5 kmh W 11.5 mph18.5 kmh 29.45 in997.3 mb - 0.29 in7.4 mm 0.29 in7.4 mm
07:50 AM 38.9°F3.8°C 34.8°F1.6°C 85% Calm Calm -- 29.44 in997.0 mb - 0.29 in7.4 mm 0.29 in7.4 mm
07:45 AM 39.0°F3.9°C 34.8°F1.6°C 85% 3.4 mph WSW5.5 kmh WSW 8.0 mph12.9 kmh 29.44 in997.0 mb - 0.29 in7.4 mm 0.29 in7.4 mm
07:39 AM 39.0°F3.9°C 35.2°F1.8°C 86% 2.3 mph WSW3.7 kmh WSW 4.6 mph7.4 kmh 29.44 in997.0 mb - 0.29 in7.4 mm 0.29 in7.4 mm
07:33 AM 39.0°F3.9°C 35.2°F1.8°C 86% 2.3 mph WSW3.7 kmh WSW 9.2 mph14.8 kmh 29.43 in996.6 mb - 0.29 in7.4 mm 0.29 in7.4 mm
07:28 AM 39.0°F3.9°C 35.1°F1.7°C 86% 3.4 mph W5.5 kmh W 3.4 mph5.5 kmh 29.43 in996.6 mb - 0.29 in7.4 mm 0.29 in7.4 mm
07:22 AM 38.9°F3.8°C 35.1°F1.7°C 86% 4.6 mph W7.4 kmh W 11.5 mph18.5 kmh 29.43 in996.6 mb - 0.29 in7.4 mm 0.29 in7.4 mm
07:16 AM 38.7°F3.7°C 35.2°F1.8°C 87% Calm Calm -- 29.43 in996.6 mb - 0.28 in7.1 mm 0.28 in7.1 mm
07:11 AM 38.5°F3.6°C 34.9°F1.6°C 87% Calm Calm -- 29.43 in996.6 mb - 0.28 in7.1 mm 0.28 in7.1 mm
07:05 AM 38.4°F3.6°C 34.9°F1.6°C 87% Calm Calm -- 29.42 in996.3 mb - 0.28 in7.1 mm 0.28 in7.1 mm
07:00 AM 38.2°F3.4°C 35.0°F1.7°C 88% Calm Calm -- 29.42 in996.3 mb - 0.28 in7.1 mm 0.28 in7.1 mm
06:54 AM 37.9°F3.3°C 34.7°F1.5°C 88% Calm Calm -- 29.42 in996.3 mb - 0.28 in7.1 mm 0.28 in7.1 mm
06:48 AM 37.8°F3.2°C 34.6°F1.4°C 88% Calm Calm -- 29.42 in996.3 mb - 0.28 in7.1 mm 0.28 in7.1 mm
06:43 AM 37.4°F3.0°C 33.9°F1.1°C 87% 2.3 mph SSW3.7 kmh SSW 2.3 mph3.7 kmh 29.41 in995.9 mb - 0.28 in7.1 mm 0.28 in7.1 mm
06:37 AM 37.4°F3.0°C 33.9°F1.1°C 87% 2.3 mph SSW3.7 kmh SSW 3.4 mph5.5 kmh 29.41 in995.9 mb - 0.28 in7.1 mm 0.28 in7.1 mm
06:31 AM 37.5°F3.1°C 33.7°F0.9°C 86% Calm Calm 9.2 mph14.8 kmh 29.41 in995.9 mb - 0.28 in7.1 mm 0.28 in7.1 mm
06:26 AM 37.9°F3.3°C 34.1°F1.2°C 86% Calm Calm -- 29.41 in995.9 mb - 0.28 in7.1 mm 0.28 in7.1 mm
06:20 AM 38.0°F3.3°C 34.5°F1.4°C 87% Calm Calm -- 29.41 in995.9 mb - 0.28 in7.1 mm 0.28 in7.1 mm
06:15 AM 37.9°F3.3°C 34.6°F1.4°C 88% Calm Calm -- 29.41 in995.9 mb - 0.28 in7.1 mm 0.28 in7.1 mm
06:09 AM 37.2°F2.9°C 34.2°F1.2°C 89% 1.1 mph NW1.8 kmh NW 4.6 mph7.4 kmh 29.40 in995.6 mb - 0.28 in7.1 mm 0.28 in7.1 mm
06:03 AM 37.0°F2.8°C 34.0°F1.1°C 89% 1.1 mph N1.8 kmh N 5.8 mph9.3 kmh 29.40 in995.6 mb - 0.28 in7.1 mm 0.28 in7.1 mm
05:58 AM 36.7°F2.6°C 33.8°F1.0°C 89% Calm Calm -- 29.40 in995.6 mb - 0.28 in7.1 mm 0.28 in7.1 mm
05:52 AM 36.7°F2.6°C 33.8°F1.0°C 89% 1.1 mph SW1.8 kmh SW -- 29.40 in995.6 mb - 0.27 in6.9 mm 0.27 in6.9 mm
05:46 AM 36.6°F2.6°C 33.7°F0.9°C 89% 1.1 mph SW1.8 kmh SW 10.3 mph16.6 kmh 29.39 in995.3 mb - 0.27 in6.9 mm 0.27 in6.9 mm
05:41 AM 36.5°F2.5°C 33.6°F0.9°C 89% 1.1 mph SW1.8 kmh SW 6.9 mph11.1 kmh 29.39 in995.3 mb - 0.27 in6.9 mm 0.27 in6.9 mm
05:35 AM 36.5°F2.5°C 33.6°F0.9°C 89% Calm Calm -- 29.39 in995.3 mb - 0.27 in6.9 mm 0.27 in6.9 mm
05:30 AM 36.4°F2.4°C 33.5°F0.8°C 89% Calm Calm -- 29.39 in995.3 mb - 0.27 in6.9 mm 0.27 in6.9 mm
05:24 AM 36.2°F2.3°C 33.3°F0.7°C 89% Calm Calm -- 29.39 in995.3 mb - 0.27 in6.9 mm 0.27 in6.9 mm
05:18 AM 36.2°F2.3°C 33.3°F0.7°C 89% Calm Calm 4.6 mph7.4 kmh 29.38 in994.9 mb - 0.27 in6.9 mm 0.27 in6.9 mm
05:13 AM 36.0°F2.2°C 33.0°F0.6°C 89% Calm Calm -- 29.38 in994.9 mb - 0.27 in6.9 mm 0.27 in6.9 mm
05:07 AM 35.9°F2.2°C 33.0°F0.6°C 89% 1.1 mph SW1.8 kmh SW 4.6 mph7.4 kmh 29.38 in994.9 mb - 0.27 in6.9 mm 0.27 in6.9 mm
05:01 AM 35.8°F2.1°C 32.9°F0.5°C 89% 1.1 mph SW1.8 kmh SW -- 29.38 in994.9 mb - 0.26 in6.6 mm 0.26 in6.6 mm
04:56 AM 35.6°F2.0°C 32.4°F0.2°C 88% Calm Calm -- 29.38 in994.9 mb - 0.26 in6.6 mm 0.26 in6.6 mm
04:50 AM 35.6°F2.0°C 32.4°F0.2°C 88% Calm Calm -- 29.38 in994.9 mb - 0.25 in6.4 mm 0.25 in6.4 mm
04:45 AM 35.6°F2.0°C 32.4°F0.2°C 88% Calm Calm 3.4 mph5.5 kmh 29.38 in994.9 mb - 0.25 in6.4 mm 0.25 in6.4 mm
04:39 AM 35.5°F1.9°C 32.3°F0.2°C 88% Calm Calm -- 29.38 in994.9 mb - 0.24 in6.1 mm 0.24 in6.1 mm
04:33 AM 35.5°F1.9°C 32.6°F0.3°C 89% Calm Calm -- 29.38 in994.9 mb - 0.24 in6.1 mm 0.24 in6.1 mm
04:28 AM 35.2°F1.8°C 32.0°F0.0°C 88% Calm Calm -- 29.38 in994.9 mb - 0.22 in5.6 mm 0.22 in5.6 mm
04:22 AM 35.0°F1.7°C 31.8°F-0.1°C 88% Calm Calm -- 29.38 in994.9 mb - 0.20 in5.1 mm 0.21 in5.3 mm
04:16 AM 34.8°F1.6°C 31.6°F-0.2°C 88% Calm Calm -- 29.38 in994.9 mb - 0.20 in5.1 mm 0.21 in5.3 mm
04:11 AM 34.6°F1.4°C 31.4°F-0.3°C 88% Calm Calm -- 29.38 in994.9 mb - 0.20 in5.1 mm 0.20 in5.1 mm
04:05 AM 34.6°F1.4°C 31.4°F-0.3°C 88% Calm Calm -- 29.38 in994.9 mb - 0.19 in4.8 mm 0.19 in4.8 mm
04:00 AM 34.7°F1.5°C 31.2°F-0.4°C 87% Calm Calm -- 29.38 in994.9 mb - 0.19 in4.8 mm 0.19 in4.8 mm
03:54 AM 34.9°F1.6°C 31.5°F-0.3°C 87% Calm Calm -- 29.38 in994.9 mb - 0.17 in4.3 mm 0.17 in4.3 mm
03:48 AM 35.2°F1.8°C 31.8°F-0.1°C 87% 1.1 mph SW1.8 kmh SW 8.0 mph12.9 kmh 29.38 in994.9 mb - 0.17 in4.3 mm 0.17 in4.3 mm
03:43 AM 35.6°F2.0°C 32.1°F0.1°C 87% Calm Calm 4.6 mph7.4 kmh 29.38 in994.9 mb - 0.17 in4.3 mm 0.17 in4.3 mm
03:37 AM 36.0°F2.2°C 32.5°F0.3°C 87% 2.3 mph WSW3.7 kmh WSW 11.5 mph18.5 kmh 29.38 in994.9 mb - 0.17 in4.3 mm 0.17 in4.3 mm
03:31 AM 36.7°F2.6°C 33.2°F0.7°C 87% 3.4 mph SW5.5 kmh SW 16.1 mph25.9 kmh 29.38 in994.9 mb - 0.16 in4.1 mm 0.16 in4.1 mm
03:26 AM 36.8°F2.7°C 33.3°F0.7°C 87% Calm Calm -- 29.37 in994.6 mb - 0.16 in4.1 mm 0.16 in4.1 mm
03:20 AM 36.9°F2.7°C 33.4°F0.8°C 87% 1.1 mph SW1.8 kmh SW 14.9 mph24.0 kmh 29.37 in994.6 mb - 0.15 in3.8 mm 0.15 in3.8 mm
03:15 AM 36.9°F2.7°C 33.4°F0.8°C 87% 1.1 mph SW1.8 kmh SW 1.1 mph1.8 kmh 29.37 in994.6 mb - 0.15 in3.8 mm 0.15 in3.8 mm
03:09 AM 36.6°F2.6°C 33.1°F0.6°C 87% 1.1 mph SW1.8 kmh SW 10.3 mph16.6 kmh 29.37 in994.6 mb - 0.14 in3.6 mm 0.14 in3.6 mm
03:03 AM 36.6°F2.6°C 33.1°F0.6°C 87% 2.3 mph SW3.7 kmh SW 18.4 mph29.6 kmh 29.37 in994.6 mb - 0.14 in3.6 mm 0.14 in3.6 mm
02:58 AM 36.6°F2.6°C 33.1°F0.6°C 87% 1.1 mph SW1.8 kmh SW 11.5 mph18.5 kmh 29.37 in994.6 mb - 0.14 in3.6 mm 0.14 in3.6 mm
02:52 AM 36.6°F2.6°C 34.3°F1.3°C 91% Calm Calm -- 29.37 in994.6 mb - 0.13 in3.3 mm 0.13 in3.3 mm
02:46 AM 37.0°F2.8°C 33.5°F0.8°C 87% 2.3 mph SSW3.7 kmh SSW 14.9 mph24.0 kmh 29.38 in994.9 mb - 0.13 in3.3 mm 0.13 in3.3 mm
02:41 AM 37.2°F2.9°C 33.7°F0.9°C 87% 4.6 mph SW7.4 kmh SW 8.0 mph12.9 kmh 29.38 in994.9 mb - 0.09 in2.3 mm 0.09 in2.3 mm
02:35 AM 37.5°F3.1°C 34.0°F1.1°C 87% 5.8 mph SSW9.3 kmh SSW 13.8 mph22.2 kmh 29.37 in994.6 mb - 0.09 in2.3 mm 0.09 in2.3 mm
02:30 AM 37.7°F3.2°C 34.2°F1.2°C 87% 1.1 mph SSW1.8 kmh SSW -- 29.37 in994.6 mb - 0.09 in2.3 mm 0.09 in2.3 mm
02:24 AM 37.6°F3.1°C 34.4°F1.3°C 88% Calm Calm 1.1 mph1.8 kmh 29.37 in994.6 mb - 0.09 in2.3 mm 0.09 in2.3 mm
02:18 AM 37.5°F3.1°C 34.0°F1.1°C 87% Calm Calm -- 29.37 in994.6 mb - 0.09 in2.3 mm 0.09 in2.3 mm
02:13 AM 37.4°F3.0°C 34.2°F1.2°C 88% Calm Calm -- 29.37 in994.6 mb - 0.09 in2.3 mm 0.09 in2.3 mm
02:07 AM 37.3°F2.9°C 33.8°F1.0°C 87% 1.1 mph SW1.8 kmh SW 3.4 mph5.5 kmh 29.37 in994.6 mb - 0.09 in2.3 mm 0.09 in2.3 mm
02:01 AM 37.2°F2.9°C 33.7°F0.9°C 87% Calm Calm -- 29.37 in994.6 mb - 0.09 in2.3 mm 0.09 in2.3 mm
01:56 AM 37.2°F2.9°C 33.7°F0.9°C 87% Calm Calm -- 29.37 in994.6 mb - 0.09 in2.3 mm 0.09 in2.3 mm
01:50 AM 37.2°F2.9°C 33.4°F0.8°C 86% 1.1 mph SW1.8 kmh SW 11.5 mph18.5 kmh 29.36 in994.2 mb - 0.09 in2.3 mm 0.09 in2.3 mm
01:45 AM 37.2°F2.9°C 33.4°F0.8°C 86% 2.3 mph SW3.7 kmh SW 14.9 mph24.0 kmh 29.36 in994.2 mb - 0.09 in2.3 mm 0.09 in2.3 mm
01:39 AM 37.3°F2.9°C 33.5°F0.8°C 86% 1.1 mph WSW1.8 kmh WSW 11.5 mph18.5 kmh 29.36 in994.2 mb - 0.08 in2.0 mm 0.08 in2.0 mm
01:33 AM 37.3°F2.9°C 33.5°F0.8°C 86% 1.1 mph SSW1.8 kmh SSW 8.0 mph12.9 kmh 29.36 in994.2 mb - 0.08 in2.0 mm 0.08 in2.0 mm
01:28 AM 37.3°F2.9°C 33.5°F0.8°C 86% Calm Calm -- 29.36 in994.2 mb - 0.08 in2.0 mm 0.08 in2.0 mm
01:22 AM 37.4°F3.0°C 33.3°F0.7°C 85% Calm Calm 1.1 mph1.8 kmh 29.36 in994.2 mb - 0.08 in2.0 mm 0.08 in2.0 mm
01:16 AM 38.3°F3.5°C 34.1°F1.2°C 85% 1.1 mph W1.8 kmh W 14.9 mph24.0 kmh 29.36 in994.2 mb - 0.06 in1.5 mm 0.06 in1.5 mm
01:11 AM 38.4°F3.6°C 34.3°F1.3°C 85% Calm Calm 14.9 mph24.0 kmh 29.36 in994.2 mb - 0.06 in1.5 mm 0.06 in1.5 mm
01:05 AM 38.8°F3.8°C 34.7°F1.5°C 85% Calm Calm -- 29.35 in993.9 mb - 0.02 in0.5 mm 0.02 in0.5 mm
01:00 AM 38.9°F3.8°C 34.8°F1.6°C 85% Calm Calm -- 29.35 in993.9 mb - 0.02 in0.5 mm 0.02 in0.5 mm
12:54 AM 38.9°F3.8°C 34.5°F1.4°C 84% 1.1 mph SSW1.8 kmh SSW 5.8 mph9.3 kmh 29.35 in993.9 mb - 0.02 in0.5 mm 0.02 in0.5 mm
12:48 AM 38.9°F3.8°C 34.5°F1.4°C 84% 3.4 mph SW5.5 kmh SW 11.5 mph18.5 kmh 29.35 in993.9 mb - 0.02 in0.5 mm 0.02 in0.5 mm
12:43 AM 38.9°F3.8°C 34.5°F1.4°C 84% Calm Calm 6.9 mph11.1 kmh 29.35 in993.9 mb - 0.02 in0.5 mm 0.02 in0.5 mm
12:37 AM 39.1°F3.9°C 34.7°F1.5°C 84% 3.4 mph SW5.5 kmh SW 6.9 mph11.1 kmh 29.35 in993.9 mb - 0.01 in0.3 mm 0.01 in0.3 mm
12:31 AM 39.3°F4.1°C 34.9°F1.6°C 84% Calm Calm 11.5 mph18.5 kmh 29.35 in993.9 mb - 0.01 in0.3 mm 0.01 in0.3 mm
12:26 AM 39.5°F4.2°C 35.0°F1.7°C 84% 3.4 mph SSW5.5 kmh SSW 11.5 mph18.5 kmh 29.35 in993.9 mb - 0.01 in0.3 mm 0.01 in0.3 mm
12:20 AM 39.7°F4.3°C 35.2°F1.8°C 84% Calm Calm -- 29.35 in993.9 mb - 0.00 in0.0 mm 0.00 in0.0 mm
12:15 AM 39.8°F4.3°C 35.7°F2.1°C 85% Calm Calm -- 29.35 in993.9 mb - 0.00 in0.0 mm 0.00 in0.0 mm
12:09 AM 39.8°F4.3°C 35.7°F2.1°C 85% 1.1 mph SW1.8 kmh SW 14.9 mph24.0 kmh 29.35 in993.9 mb - 0.00 in0.0 mm 0.00 in0.0 mm
12:03 AM 39.8°F4.3°C 35.7°F2.1°C 85% Calm Calm 1.1 mph1.8 kmh 29.35 in993.9 mb - 0.00 in0.0 mm 0.00 in0.0 mm